createdAt,value
2022-09-20T00:13:49.051Z,1.63
2022-09-20T00:16:22.291Z,1.65
2022-09-20T00:18:53.843Z,1.77
2022-09-20T00:21:24.484Z,1.80
2022-09-20T00:23:52.522Z,2.30
2022-09-20T00:26:20.329Z,1.35
2022-09-20T00:28:50.953Z,1.85
2022-09-20T00:31:18.117Z,1.70
2022-09-20T00:34:04.229Z,1.70
2022-09-20T00:36:31.532Z,2.00
2022-09-20T00:39:02.494Z,1.90
2022-09-20T00:41:31.241Z,1.67
2022-09-20T00:44:01.345Z,1.98
2022-09-20T00:46:39.481Z,1.65
2022-09-20T00:49:19.980Z,2.00
2022-09-20T00:51:52.482Z,2.00
2022-09-20T00:54:21.561Z,1.80
2022-09-20T00:56:49.276Z,1.65
2022-09-20T00:59:21.811Z,1.70
2022-09-20T01:01:58.637Z,1.98
2022-09-20T01:04:28.364Z,1.55
2022-09-20T01:06:58.291Z,1.50
2022-09-20T01:09:25.143Z,1.92
2022-09-20T01:11:55.625Z,1.52
2022-09-20T01:14:24.277Z,1.38
2022-09-20T01:16:55.269Z,1.95
2022-09-20T01:19:38.011Z,1.40
2022-09-20T01:22:11.802Z,1.63
2022-09-20T01:25:14.576Z,2.25
2022-09-20T01:27:47.515Z,1.70
2022-09-20T01:30:21.223Z,1.80
2022-09-20T01:33:06.164Z,2.35
2022-09-20T01:35:35.562Z,2.17
2022-09-20T01:38:15.843Z,2.10
2022-09-20T01:40:48.387Z,2.30
2022-09-20T01:43:21.654Z,2.47
2022-09-20T01:45:50.150Z,2.10
2022-09-20T01:48:33.205Z,2.10
2022-09-20T01:51:28.072Z,1.88
2022-09-20T01:54:10.034Z,1.83
2022-09-20T01:56:55.854Z,1.95
2022-09-20T01:59:47.302Z,1.80
2022-09-20T02:02:14.167Z,2.00
2022-09-20T02:05:04.173Z,1.77
2022-09-20T02:08:08.414Z,1.73
2022-09-20T02:10:50.613Z,2.00
2022-09-20T02:13:29.031Z,1.63
2022-09-20T02:15:55.823Z,1.58
2022-09-20T02:19:00.033Z,1.65
2022-09-20T02:22:04.871Z,2.28
2022-09-20T02:24:54.318Z,1.65
2022-09-20T02:27:42.930Z,1.67
2022-09-20T02:30:38.511Z,1.67
2022-09-20T02:33:23.221Z,1.75
2022-09-20T02:36:24.024Z,1.75
2022-09-20T02:39:15.435Z,2.00
2022-09-20T02:42:12.323Z,1.77
2022-09-20T02:45:05.463Z,1.67
2022-09-20T02:47:40.424Z,2.15
2022-09-20T02:50:25.354Z,1.83
2022-09-20T02:53:14.605Z,1.52
2022-09-20T02:55:44.951Z,1.70
2022-09-20T02:58:25.442Z,1.63
2022-09-20T03:01:05.676Z,1.63
2022-09-20T03:03:46.042Z,1.60
2022-09-20T03:06:41.036Z,1.83
2022-09-20T03:09:44.381Z,1.80
2022-09-20T03:12:30.522Z,1.40
2022-09-20T03:15:18.211Z,1.93
2022-09-20T03:18:42.403Z,1.58
2022-09-20T03:21:36.464Z,1.77
2022-09-20T03:24:29.450Z,1.40
2022-09-20T03:27:28.464Z,1.30
2022-09-20T03:29:59.611Z,1.77
2022-09-20T03:32:44.971Z,1.52
2022-09-20T03:35:38.382Z,1.45
2022-09-20T03:38:37.158Z,1.58
2022-09-20T03:41:13.153Z,1.67
2022-09-20T03:44:14.601Z,1.83
2022-09-20T03:46:46.863Z,1.80
2022-09-20T03:49:32.282Z,2.90
2022-09-20T03:52:05.872Z,2.13
2022-09-20T03:54:47.471Z,2.88
2022-09-20T03:57:39.165Z,2.70
2022-09-20T04:00:21.264Z,2.17
2022-09-20T04:02:50.902Z,2.13
2022-09-20T04:05:29.365Z,2.15
2022-09-20T04:08:11.087Z,1.90
2022-09-20T04:10:59.802Z,1.95
2022-09-20T04:13:40.337Z,2.40
2022-09-20T04:16:43.235Z,2.00
2022-09-20T04:19:18.543Z,2.90
2022-09-20T04:22:00.174Z,2.25
2022-09-20T04:24:50.471Z,2.70
2022-09-20T04:27:25.633Z,2.60
2022-09-20T04:29:58.667Z,3.78
2022-09-20T04:32:53.233Z,3.95
2022-09-20T04:35:57.273Z,2.97
2022-09-20T04:38:25.027Z,3.20
2022-09-20T04:41:23.314Z,2.60
2022-09-20T04:44:28.081Z,2.40
2022-09-20T04:47:28.327Z,2.90
2022-09-20T04:50:29.082Z,2.28
2022-09-20T04:53:23.650Z,2.55
2022-09-20T04:55:58.657Z,2.55
2022-09-20T04:59:08.193Z,2.10
2022-09-20T05:02:26.761Z,2.35
2022-09-20T05:05:10.292Z,1.90
2022-09-20T05:07:51.895Z,2.22
2022-09-20T05:10:56.152Z,1.65
2022-09-20T05:13:29.094Z,2.40
2022-09-20T05:16:18.661Z,1.90
2022-09-20T05:19:14.903Z,1.90
2022-09-20T05:21:53.416Z,2.00
2022-09-20T05:24:42.783Z,1.80
2022-09-20T05:27:41.233Z,1.50
2022-09-20T05:30:23.830Z,1.40
2022-09-20T05:33:02.690Z,2.15
2022-09-20T05:35:44.952Z,1.35
2022-09-20T05:38:33.092Z,1.50
2022-09-20T05:41:14.140Z,2.08
2022-09-20T05:43:54.153Z,1.80
2022-09-20T05:46:41.220Z,1.92
2022-09-20T05:52:10.070Z,2.25
2022-09-20T05:54:47.722Z,2.47
2022-09-20T05:57:41.178Z,2.47
2022-09-20T06:00:19.869Z,2.50
2022-09-20T06:03:05.304Z,3.55
2022-09-20T06:05:37.753Z,3.00
2022-09-20T06:08:27.735Z,5.93
2022-09-20T06:11:09.179Z,3.63
2022-09-20T06:13:50.015Z,2.97
2022-09-20T06:16:31.852Z,2.50
2022-09-20T06:19:23.196Z,2.35
2022-09-20T06:21:54.874Z,1.90
2022-09-20T06:24:37.969Z,1.60
2022-09-20T06:27:20.279Z,1.25
2022-09-20T06:29:55.302Z,1.27
2022-09-20T06:32:22.275Z,1.65
2022-09-20T06:34:49.927Z,1.70
2022-09-20T06:37:47.610Z,2.05
2022-09-20T06:43:16.426Z,1.40
2022-09-20T06:45:43.768Z,1.83
2022-09-20T06:48:13.296Z,1.90
2022-09-20T06:50:40.220Z,1.80
2022-09-20T06:53:07.403Z,2.13
2022-09-20T06:55:38.978Z,1.70
2022-09-20T06:58:05.963Z,1.90
2022-09-20T07:00:33.347Z,1.80
2022-09-20T07:03:00.320Z,1.80
2022-09-20T07:05:27.284Z,1.73
2022-09-20T07:08:01.559Z,1.85
2022-09-20T07:10:29.124Z,1.70
2022-09-20T07:13:00.494Z,1.98
2022-09-20T07:15:28.404Z,1.33
2022-09-20T07:17:55.800Z,1.52
2022-09-20T07:20:23.062Z,1.70
2022-09-20T07:22:50.243Z,1.30
2022-09-20T07:25:18.489Z,1.27
2022-09-20T07:27:46.784Z,2.30
2022-09-20T07:30:15.286Z,1.52
2022-09-20T07:32:42.630Z,1.80
2022-09-20T07:35:10.610Z,1.95
2022-09-20T07:37:38.057Z,1.50
2022-09-20T07:40:05.874Z,2.28
2022-09-20T07:42:32.871Z,1.90
2022-09-20T07:45:00.678Z,2.05
2022-09-20T07:47:28.703Z,1.75
2022-09-20T07:49:55.688Z,1.45
2022-09-20T07:52:22.610Z,1.90
2022-09-20T07:54:50.208Z,1.70
2022-09-20T07:57:17.263Z,2.80
2022-09-20T07:59:44.163Z,1.80
2022-09-20T08:02:15.717Z,15.80
2022-09-20T08:04:43.286Z,1.70
2022-09-20T08:07:10.719Z,1.30
2022-09-20T08:09:37.769Z,1.45
2022-09-20T08:14:52.823Z,1.20
2022-09-20T08:17:20.095Z,1.35
2022-09-20T08:19:47.866Z,1.20
2022-09-20T08:22:14.767Z,1.80
2022-09-20T08:24:42.607Z,1.83
2022-09-20T08:27:09.522Z,2.78
2022-09-20T08:29:36.521Z,2.75
2022-09-20T08:32:03.656Z,2.20
2022-09-20T08:34:31.061Z,2.58
2022-09-20T08:36:57.962Z,2.03
2022-09-20T08:42:42.084Z,1.55
2022-09-20T08:45:33.555Z,2.15
2022-09-20T08:48:06.050Z,1.63
2022-09-20T08:50:34.401Z,1.92
2022-09-20T08:53:05.355Z,1.60
2022-09-20T08:55:36.855Z,1.88
2022-09-20T08:58:08.415Z,1.50
2022-09-20T09:00:37.645Z,1.60
2022-09-20T09:03:12.364Z,2.20
2022-09-20T09:06:01.470Z,2.25
2022-09-20T09:08:37.538Z,2.08
2022-09-20T09:11:14.088Z,1.83
2022-09-20T09:14:27.727Z,2.00
2022-09-20T09:16:54.945Z,1.75
2022-09-20T09:19:44.638Z,1.50
2022-09-20T09:22:12.094Z,3.00
2022-09-20T09:24:39.171Z,2.20
2022-09-20T09:27:19.251Z,1.48
2022-09-20T09:29:51.752Z,1.80
2022-09-20T09:32:29.295Z,1.40
2022-09-20T09:34:57.475Z,2.08
2022-09-20T09:37:29.163Z,1.38
2022-09-20T09:40:17.875Z,1.50
2022-09-20T09:43:04.249Z,1.30
2022-09-20T09:45:31.300Z,1.60
2022-09-20T09:48:00.668Z,1.55
2022-09-20T09:50:31.196Z,1.65
2022-09-20T09:53:18.655Z,1.20
2022-09-20T09:56:13.883Z,1.23
2022-09-20T09:58:44.986Z,4.30
2022-09-20T10:01:33.821Z,1.73
2022-09-20T10:04:30.704Z,1.83
2022-09-20T10:07:06.112Z,1.43
2022-09-20T10:10:21.312Z,1.30
2022-09-20T10:13:07.302Z,1.00
2022-09-20T10:15:47.842Z,1.10
2022-09-20T10:18:33.294Z,1.17
2022-09-20T10:21:18.375Z,1.45
2022-09-20T10:24:05.083Z,1.27
2022-09-20T10:26:50.904Z,2.58
2022-09-20T10:29:49.882Z,1.40
2022-09-20T10:32:38.179Z,1.80
2022-09-20T10:35:22.794Z,1.50
2022-09-20T10:38:08.312Z,2.15
2022-09-20T10:40:59.602Z,1.33
2022-09-20T10:43:49.155Z,1.55
2022-09-20T10:46:32.411Z,2.30
2022-09-20T10:49:04.915Z,2.15
2022-09-20T10:51:47.515Z,0.88
2022-09-20T10:54:41.973Z,0.70
2022-09-20T10:57:51.393Z,1.15
2022-09-20T11:01:02.492Z,0.68
2022-09-20T11:03:54.005Z,1.45
2022-09-20T11:06:51.426Z,1.35
2022-09-20T11:09:23.031Z,1.05
2022-09-20T11:11:56.146Z,1.30
2022-09-20T11:14:32.763Z,1.75
2022-09-20T11:19:48.740Z,1.27
2022-09-20T11:22:21.257Z,1.30
2022-09-20T11:24:58.997Z,1.20
2022-09-20T11:27:40.042Z,0.93
2022-09-20T11:30:20.183Z,0.60
2022-09-20T11:33:28.404Z,1.23
2022-09-20T11:36:06.712Z,0.93
2022-09-20T11:39:05.889Z,0.98
2022-09-20T11:41:33.713Z,1.05
2022-09-20T11:44:08.161Z,1.75
2022-09-20T11:46:43.585Z,1.55
2022-09-20T11:49:16.555Z,1.35
2022-09-20T11:51:49.642Z,1.52
2022-09-20T11:54:39.803Z,1.50
2022-09-20T11:57:11.996Z,1.70
2022-09-20T11:59:42.344Z,1.50
2022-09-20T12:02:30.105Z,1.30
2022-09-20T12:04:58.834Z,1.10
2022-09-20T12:07:32.897Z,1.38
2022-09-20T12:10:03.162Z,1.13
2022-09-20T12:12:51.351Z,1.10
2022-09-20T12:15:32.366Z,1.98
2022-09-20T12:17:59.210Z,1.10
2022-09-20T12:20:34.973Z,1.80
2022-09-20T12:23:42.555Z,1.63
2022-09-20T12:26:36.658Z,1.27
2022-09-20T12:29:23.492Z,0.90
2022-09-20T12:31:56.482Z,1.95
2022-09-20T12:34:26.288Z,5.53
2022-09-20T12:36:56.081Z,1.63
2022-09-20T12:39:30.013Z,1.30
2022-09-20T12:42:23.322Z,1.00
2022-09-20T12:44:50.162Z,1.00
2022-09-20T12:47:23.673Z,1.20
2022-09-20T12:50:11.810Z,1.00
2022-09-20T12:52:58.962Z,4.50
2022-09-20T12:58:15.571Z,1.42
2022-09-20T13:00:51.840Z,1.30
2022-09-20T13:03:39.757Z,1.30
2022-09-20T13:06:06.600Z,1.10
2022-09-20T13:08:57.210Z,1.13
2022-09-20T13:11:36.648Z,1.50
2022-09-20T13:14:07.206Z,1.20
2022-09-20T13:16:37.251Z,1.02
2022-09-20T13:19:06.888Z,1.27
2022-09-20T13:22:17.575Z,2.50
2022-09-20T13:24:48.278Z,1.92
2022-09-20T13:27:30.206Z,1.98
2022-09-20T13:30:17.777Z,1.80
2022-09-20T13:32:45.667Z,1.60
2022-09-20T13:35:12.516Z,1.50
2022-09-20T13:37:47.372Z,2.17
2022-09-20T13:40:35.006Z,3.63
2022-09-20T13:43:22.759Z,1.50
2022-09-20T13:45:57.816Z,1.65
2022-09-20T13:48:27.148Z,1.30
2022-09-20T13:50:55.083Z,1.60
2022-09-20T13:53:40.520Z,1.45
2022-09-20T13:56:30.150Z,1.45
2022-09-20T13:59:01.087Z,1.25
2022-09-20T14:01:32.506Z,1.75
2022-09-20T14:04:09.407Z,1.83
2022-09-20T14:06:36.779Z,1.48
2022-09-20T14:09:11.178Z,1.63
2022-09-20T14:11:39.262Z,1.73
2022-09-20T14:14:08.130Z,1.65
2022-09-20T14:16:39.838Z,2.17
2022-09-20T14:19:08.412Z,1.52
2022-09-20T14:21:37.414Z,1.55
2022-09-20T14:24:14.454Z,1.58
2022-09-20T14:26:42.771Z,1.52
2022-09-20T14:29:30.884Z,2.22
2022-09-20T14:32:01.733Z,1.75
2022-09-20T14:34:28.968Z,1.60
2022-09-20T14:37:06.849Z,1.60
2022-09-20T14:39:36.575Z,1.60
2022-09-20T14:42:03.725Z,2.35
2022-09-20T14:44:34.851Z,1.70
2022-09-20T14:47:15.464Z,2.13
2022-09-20T14:49:45.303Z,1.60
2022-09-20T14:52:35.502Z,2.20
2022-09-20T14:55:20.810Z,1.90
2022-09-20T14:57:48.290Z,2.05
2022-09-20T15:00:17.436Z,1.83
2022-09-20T15:02:46.213Z,1.60
2022-09-20T15:05:24.153Z,1.40
2022-09-20T15:07:51.927Z,1.77
2022-09-20T15:10:18.745Z,2.00
2022-09-20T15:12:45.823Z,1.80
2022-09-20T15:15:17.792Z,1.40
2022-09-20T15:17:47.028Z,1.75
2022-09-20T15:20:24.212Z,1.83
2022-09-20T15:22:52.023Z,1.52
2022-09-20T15:25:21.341Z,1.90
2022-09-20T15:27:51.953Z,1.75
2022-09-20T15:30:23.234Z,1.98
2022-09-20T15:32:50.089Z,2.15
2022-09-20T15:35:16.957Z,1.95
2022-09-20T15:37:44.962Z,4.03
2022-09-20T15:40:12.353Z,3.60
2022-09-20T15:42:41.661Z,3.88
2022-09-20T15:45:10.479Z,4.65
2022-09-20T15:47:41.600Z,3.38
2022-09-20T15:50:09.525Z,3.22
2022-09-20T15:52:39.992Z,3.00
2022-09-20T15:55:08.731Z,3.20
2022-09-20T15:57:35.920Z,3.33
2022-09-20T16:00:03.100Z,3.17
2022-09-20T16:02:31.111Z,3.30
2022-09-20T16:04:59.520Z,2.30
2022-09-20T16:07:26.341Z,2.15
2022-09-20T16:09:57.364Z,2.50
2022-09-20T16:12:25.756Z,2.05
2022-09-20T16:14:52.761Z,2.28
2022-09-20T16:17:39.915Z,1.80
2022-09-20T16:22:34.333Z,2.30
2022-09-20T16:25:06.151Z,2.80
2022-09-20T16:27:36.257Z,3.05
2022-09-20T16:30:30.221Z,3.42
2022-09-20T16:32:57.091Z,3.75
2022-09-20T16:35:23.863Z,3.08
2022-09-20T16:37:51.098Z,3.50
2022-09-20T16:40:17.894Z,4.30
2022-09-20T16:42:52.112Z,4.90
2022-09-20T16:45:19.541Z,6.88
2022-09-20T16:47:46.799Z,6.40
2022-09-20T16:50:13.642Z,7.90
2022-09-20T16:52:40.510Z,6.28
2022-09-20T16:55:08.234Z,6.20
2022-09-20T16:57:36.912Z,6.07
2022-09-20T17:00:04.780Z,6.80
2022-09-20T17:02:31.521Z,5.38
2022-09-20T17:04:58.305Z,5.45
2022-09-20T17:07:25.279Z,4.65
2022-09-20T17:09:52.213Z,4.72
2022-09-20T17:12:22.160Z,4.85
2022-09-20T17:14:49.429Z,4.65
2022-09-20T17:17:16.188Z,5.60
2022-09-20T17:19:42.960Z,5.30
2022-09-20T17:22:09.907Z,5.85
2022-09-20T17:24:36.738Z,6.05
2022-09-20T17:27:04.259Z,6.03
2022-09-20T17:29:31.198Z,5.93
2022-09-20T17:31:59.857Z,6.07
2022-09-20T17:34:28.177Z,5.45
2022-09-20T17:36:55.659Z,5.20
2022-09-20T17:39:23.156Z,5.68
2022-09-20T17:41:50.923Z,5.78
2022-09-20T17:44:18.217Z,5.40
2022-09-20T17:46:50.134Z,5.00
2022-09-20T17:49:22.379Z,3.42
2022-09-20T17:51:54.570Z,4.10
2022-09-20T17:54:23.578Z,5.10
2022-09-20T17:56:52.502Z,4.50
2022-09-20T17:59:20.338Z,10.95
2022-09-20T18:01:50.641Z,10.88
2022-09-20T18:04:18.413Z,10.68
2022-09-20T18:06:49.767Z,10.05
2022-09-20T18:09:19.112Z,6.78
2022-09-20T18:11:49.884Z,7.13
2022-09-20T18:14:25.072Z,8.40
2022-09-20T18:16:53.254Z,10.10
2022-09-20T18:19:21.582Z,10.00
2022-09-20T18:21:48.724Z,10.30
2022-09-20T18:24:15.643Z,9.75
2022-09-20T18:26:42.509Z,11.15
2022-09-20T18:29:12.531Z,10.02
2022-09-20T18:31:58.073Z,9.77
2022-09-20T18:34:33.553Z,9.77
2022-09-20T18:37:03.099Z,9.00
2022-09-20T18:39:35.198Z,8.52
2022-09-20T18:42:03.434Z,8.07
2022-09-20T18:44:32.510Z,11.63
2022-09-20T18:47:01.402Z,11.35
2022-09-20T18:49:30.461Z,11.10
2022-09-20T18:51:58.099Z,12.43
2022-09-20T18:54:25.056Z,8.38
2022-09-20T18:56:52.240Z,9.82
2022-09-20T18:59:22.040Z,13.15
2022-09-20T19:02:12.526Z,16.83
2022-09-20T19:04:45.950Z,16.45
2022-09-20T19:07:26.053Z,17.33
2022-09-20T19:10:14.510Z,15.75
2022-09-20T19:12:44.498Z,13.05
2022-09-20T19:15:32.833Z,11.82
2022-09-20T19:18:50.694Z,9.85
2022-09-20T19:21:22.556Z,7.93
2022-09-20T19:24:17.368Z,7.88
2022-09-20T19:26:44.884Z,7.50
2022-09-20T19:29:27.154Z,6.88
2022-09-20T19:31:59.196Z,6.78
2022-09-20T19:34:32.157Z,7.72
2022-09-20T19:37:18.850Z,7.22
2022-09-20T19:40:01.125Z,7.18
2022-09-20T19:43:00.282Z,7.20
2022-09-20T19:45:47.583Z,7.05
2022-09-20T19:48:34.205Z,5.57
2022-09-20T19:51:05.003Z,4.95
2022-09-20T19:53:32.233Z,5.38
2022-09-20T19:56:18.310Z,5.15
2022-09-20T19:58:45.516Z,5.00
2022-09-20T20:01:13.087Z,5.10
2022-09-20T20:03:41.013Z,5.40
2022-09-20T20:06:22.130Z,5.72
2022-09-20T20:09:07.391Z,5.57
2022-09-20T20:11:43.028Z,5.47
2022-09-20T20:14:43.290Z,5.40
2022-09-20T20:17:41.667Z,5.35
2022-09-20T20:20:34.673Z,4.55
2022-09-20T20:23:41.443Z,4.57
2022-09-20T20:26:16.114Z,5.10
2022-09-20T20:28:43.002Z,4.93
2022-09-20T20:31:12.599Z,4.32
2022-09-20T20:33:40.176Z,5.47
2022-09-20T20:36:11.873Z,5.80
2022-09-20T20:38:40.514Z,6.30
2022-09-20T20:41:15.966Z,6.50
2022-09-20T20:43:45.811Z,5.97
2022-09-20T20:46:16.045Z,7.38
2022-09-20T20:48:43.254Z,8.43
2022-09-20T20:51:14.793Z,10.90
2022-09-20T20:53:45.516Z,10.35
2022-09-20T20:56:15.147Z,9.63
2022-09-20T20:59:01.488Z,11.55
2022-09-20T21:01:34.721Z,13.37
2022-09-20T21:04:03.498Z,13.68
2022-09-20T21:06:32.504Z,13.48
2022-09-20T21:08:59.751Z,12.68
2022-09-20T21:11:29.449Z,14.75
2022-09-20T21:13:58.928Z,12.82
2022-09-20T21:16:35.827Z,14.40
2022-09-20T21:19:04.549Z,15.32
2022-09-20T21:21:34.533Z,14.05
2022-09-20T21:24:05.675Z,13.80
2022-09-20T21:26:34.255Z,12.45
2022-09-20T21:29:03.912Z,12.30
2022-09-20T21:31:33.412Z,11.75
2022-09-20T21:34:00.774Z,10.13
2022-09-20T21:36:31.104Z,11.85
2022-09-20T21:38:58.017Z,10.55
2022-09-20T21:41:29.801Z,10.50
2022-09-20T21:44:00.231Z,11.05
2022-09-20T21:46:29.966Z,10.48
2022-09-20T21:48:58.672Z,11.52
2022-09-20T21:51:27.202Z,11.02
2022-09-20T21:53:56.626Z,10.15
2022-09-20T21:56:25.155Z,9.88
2022-09-20T21:58:51.983Z,10.38
2022-09-20T22:01:24.157Z,11.00
2022-09-20T22:04:00.421Z,10.32
2022-09-20T22:06:33.254Z,10.32
2022-09-20T22:09:03.121Z,11.48
2022-09-20T22:11:32.430Z,10.43
2022-09-20T22:13:59.768Z,9.00
2022-09-20T22:16:48.162Z,10.30
2022-09-20T22:19:17.212Z,9.85
2022-09-20T22:21:47.118Z,9.80
2022-09-20T22:24:15.173Z,9.98
2022-09-20T22:26:49.508Z,10.35
2022-09-20T22:29:17.805Z,9.55
2022-09-20T22:31:46.721Z,9.18
2022-09-20T22:34:19.066Z,9.43
2022-09-20T22:36:46.574Z,10.13
2022-09-20T22:39:14.558Z,9.82
2022-09-20T22:41:45.049Z,10.32
2022-09-20T22:44:12.065Z,9.48
2022-09-20T22:46:39.386Z,9.07
2022-09-20T22:49:07.619Z,9.07
2022-09-20T22:51:34.906Z,9.18
2022-09-20T22:54:06.243Z,8.73
2022-09-20T22:56:33.780Z,9.52
2022-09-20T22:59:05.639Z,9.38
2022-09-20T23:01:35.387Z,10.20
2022-09-20T23:04:10.942Z,8.30
2022-09-20T23:06:49.402Z,8.23
2022-09-20T23:09:18.334Z,7.63
2022-09-20T23:11:46.427Z,7.63
2022-09-20T23:14:21.854Z,6.10
2022-09-20T23:16:49.896Z,6.25
2022-09-20T23:19:17.806Z,5.93
2022-09-20T23:21:45.161Z,5.63
2022-09-20T23:24:13.889Z,5.35
2022-09-20T23:26:42.230Z,5.60
2022-09-20T23:29:12.300Z,5.32
2022-09-20T23:31:40.762Z,5.13
2022-09-20T23:34:08.949Z,4.72
2022-09-20T23:36:38.393Z,6.00
2022-09-20T23:39:06.818Z,5.97
2022-09-20T23:41:34.188Z,5.47
2022-09-20T23:44:01.384Z,5.60
2022-09-20T23:46:28.371Z,5.47
2022-09-20T23:48:55.559Z,5.60
2022-09-20T23:51:24.937Z,5.97
2022-09-20T23:53:53.674Z,5.40
2022-09-20T23:56:21.575Z,5.55
2022-09-20T23:58:48.935Z,5.35
